sensor_id;sensor_type;location;lat;lon;timestamp;P1;durP1;ratioP1;P2;durP2;ratioP2
16973;SDS011;8603;46.944;7.412;2022-12-15T00:01:56;28.93;;;16.37;;
16973;SDS011;8603;46.944;7.412;2022-12-15T00:04:40;26.17;;;16.00;;
16973;SDS011;8603;46.944;7.412;2022-12-15T00:07:24;24.80;;;16.13;;
16973;SDS011;8603;46.944;7.412;2022-12-15T00:10:08;25.53;;;16.30;;
16973;SDS011;8603;46.944;7.412;2022-12-15T00:12:52;28.93;;;16.80;;
16973;SDS011;8603;46.944;7.412;2022-12-15T00:15:37;27.07;;;17.70;;
16973;SDS011;8603;46.944;7.412;2022-12-15T00:18:21;27.87;;;17.43;;
16973;SDS011;8603;46.944;7.412;2022-12-15T00:21:05;29.63;;;17.23;;
16973;SDS011;8603;46.944;7.412;2022-12-15T00:23:49;28.70;;;17.20;;
16973;SDS011;8603;46.944;7.412;2022-12-15T00:26:33;29.53;;;17.17;;
16973;SDS011;8603;46.944;7.412;2022-12-15T00:29:17;25.87;;;16.33;;
16973;SDS011;8603;46.944;7.412;2022-12-15T00:32:01;27.10;;;15.20;;
16973;SDS011;8603;46.944;7.412;2022-12-15T00:34:45;22.83;;;14.40;;
16973;SDS011;8603;46.944;7.412;2022-12-15T00:37:29;25.03;;;14.77;;
16973;SDS011;8603;46.944;7.412;2022-12-15T00:40:13;25.03;;;15.07;;
16973;SDS011;8603;46.944;7.412;2022-12-15T00:42:38;23.40;;;14.67;;
16973;SDS011;8603;46.944;7.412;2022-12-15T00:45:04;22.67;;;13.53;;
16973;SDS011;8603;46.944;7.412;2022-12-15T00:47:31;24.50;;;14.63;;
16973;SDS011;8603;46.944;7.412;2022-12-15T00:49:57;21.17;;;14.87;;
16973;SDS011;8603;46.944;7.412;2022-12-15T00:52:49;22.57;;;14.43;;
16973;SDS011;8603;46.944;7.412;2022-12-15T00:55:33;21.97;;;14.03;;
16973;SDS011;8603;46.944;7.412;2022-12-15T00:58:17;23.53;;;15.00;;
16973;SDS011;8603;46.944;7.412;2022-12-15T01:01:05;19.23;;;12.63;;
16973;SDS011;8603;46.944;7.412;2022-12-15T01:03:52;20.27;;;14.03;;
16973;SDS011;8603;46.944;7.412;2022-12-15T01:06:36;18.67;;;12.23;;
16973;SDS011;8603;46.944;7.412;2022-12-15T01:09:21;20.37;;;13.33;;
16973;SDS011;8603;46.944;7.412;2022-12-15T01:12:06;22.80;;;13.00;;
16973;SDS011;8603;46.944;7.412;2022-12-15T01:14:50;20.77;;;14.50;;
16973;SDS011;8603;46.944;7.412;2022-12-15T01:17:34;20.80;;;13.67;;
16973;SDS011;8603;46.944;7.412;2022-12-15T01:20:18;21.90;;;13.97;;
16973;SDS011;8603;46.944;7.412;2022-12-15T01:22:47;23.03;;;13.97;;
16973;SDS011;8603;46.944;7.412;2022-12-15T01:25:17;26.30;;;14.43;;
16973;SDS011;8603;46.944;7.412;2022-12-15T01:27:45;21.93;;;13.70;;
16973;SDS011;8603;46.944;7.412;2022-12-15T01:30:12;23.20;;;13.30;;
16973;SDS011;8603;46.944;7.412;2022-12-15T01:32:40;24.60;;;15.43;;
16973;SDS011;8603;46.944;7.412;2022-12-15T01:35:06;24.07;;;14.10;;
16973;SDS011;8603;46.944;7.412;2022-12-15T01:37:32;26.00;;;14.67;;
16973;SDS011;8603;46.944;7.412;2022-12-15T01:39:59;23.93;;;14.63;;
16973;SDS011;8603;46.944;7.412;2022-12-15T01:42:43;22.77;;;14.27;;
16973;SDS011;8603;46.944;7.412;2022-12-15T01:47:54;30.03;;;17.13;;
16973;SDS011;8603;46.944;7.412;2022-12-15T01:50:30;31.93;;;16.83;;
16973;SDS011;8603;46.944;7.412;2022-12-15T01:52:59;27.77;;;16.37;;
16973;SDS011;8603;46.944;7.412;2022-12-15T01:55:24;36.63;;;17.40;;
16973;SDS011;8603;46.944;7.412;2022-12-15T01:57:54;35.27;;;17.53;;
16973;SDS011;8603;46.944;7.412;2022-12-15T02:00:24;29.97;;;16.80;;
16973;SDS011;8603;46.944;7.412;2022-12-15T02:02:50;33.67;;;17.67;;
16973;SDS011;8603;46.944;7.412;2022-12-15T02:05:16;35.00;;;19.17;;
16973;SDS011;8603;46.944;7.412;2022-12-15T02:07:43;94.20;;;22.03;;
16973;SDS011;8603;46.944;7.412;2022-12-15T02:10:09;60.73;;;21.80;;
16973;SDS011;8603;46.944;7.412;2022-12-15T02:15:52;32.50;;;18.03;;
16973;SDS011;8603;46.944;7.412;2022-12-15T02:18:18;33.00;;;17.47;;
16973;SDS011;8603;46.944;7.412;2022-12-15T02:20:47;47.40;;;20.73;;
16973;SDS011;8603;46.944;7.412;2022-12-15T02:31:29;35.47;;;16.53;;
16973;SDS011;8603;46.944;7.412;2022-12-15T02:36:57;56.23;;;18.63;;
16973;SDS011;8603;46.944;7.412;2022-12-15T02:39:27;75.07;;;18.30;;
16973;SDS011;8603;46.944;7.412;2022-12-15T02:41:53;31.87;;;16.67;;
16973;SDS011;8603;46.944;7.412;2022-12-15T02:44:38;25.90;;;16.13;;
16973;SDS011;8603;46.944;7.412;2022-12-15T02:50:07;40.77;;;17.27;;
16973;SDS011;8603;46.944;7.412;2022-12-15T03:01:13;35.83;;;14.80;;
16973;SDS011;8603;46.944;7.412;2022-12-15T03:03:54;45.67;;;15.30;;
16973;SDS011;8603;46.944;7.412;2022-12-15T03:06:23;36.63;;;15.47;;
16973;SDS011;8603;46.944;7.412;2022-12-15T03:08:50;31.53;;;15.13;;
16973;SDS011;8603;46.944;7.412;2022-12-15T03:11:16;46.40;;;15.80;;
16973;SDS011;8603;46.944;7.412;2022-12-15T03:13:42;97.13;;;18.20;;
16973;SDS011;8603;46.944;7.412;2022-12-15T03:16:07;20.27;;;13.03;;
16973;SDS011;8603;46.944;7.412;2022-12-15T03:18:33;30.17;;;14.03;;
16973;SDS011;8603;46.944;7.412;2022-12-15T03:20:58;44.10;;;14.50;;
16973;SDS011;8603;46.944;7.412;2022-12-15T03:23:24;39.97;;;13.17;;
16973;SDS011;8603;46.944;7.412;2022-12-15T03:25:50;56.67;;;13.13;;
16973;SDS011;8603;46.944;7.412;2022-12-15T03:28:15;39.70;;;13.17;;
16973;SDS011;8603;46.944;7.412;2022-12-15T03:30:41;18.27;;;11.53;;
16973;SDS011;8603;46.944;7.412;2022-12-15T03:33:07;70.13;;;14.03;;
16973;SDS011;8603;46.944;7.412;2022-12-15T03:35:33;49.47;;;13.27;;
16973;SDS011;8603;46.944;7.412;2022-12-15T03:37:58;44.87;;;12.87;;
16973;SDS011;8603;46.944;7.412;2022-12-15T03:40:24;50.87;;;17.90;;
16973;SDS011;8603;46.944;7.412;2022-12-15T03:42:50;46.20;;;15.00;;
16973;SDS011;8603;46.944;7.412;2022-12-15T03:45:17;77.87;;;22.57;;
16973;SDS011;8603;46.944;7.412;2022-12-15T03:47:48;31.03;;;12.27;;
16973;SDS011;8603;46.944;7.412;2022-12-15T03:50:15;46.73;;;12.87;;
16973;SDS011;8603;46.944;7.412;2022-12-15T03:52:43;27.20;;;12.00;;
16973;SDS011;8603;46.944;7.412;2022-12-15T03:55:09;51.13;;;14.30;;
16973;SDS011;8603;46.944;7.412;2022-12-15T03:57:36;33.87;;;13.00;;
16973;SDS011;8603;46.944;7.412;2022-12-15T04:00:02;31.00;;;11.90;;
16973;SDS011;8603;46.944;7.412;2022-12-15T04:02:28;18.10;;;10.97;;
16973;SDS011;8603;46.944;7.412;2022-12-15T04:04:54;17.00;;;11.33;;
16973;SDS011;8603;46.944;7.412;2022-12-15T04:07:20;38.03;;;14.37;;
16973;SDS011;8603;46.944;7.412;2022-12-15T04:09:45;47.80;;;13.43;;
16973;SDS011;8603;46.944;7.412;2022-12-15T04:12:11;25.87;;;12.77;;
16973;SDS011;8603;46.944;7.412;2022-12-15T04:14:36;26.37;;;12.90;;
16973;SDS011;8603;46.944;7.412;2022-12-15T04:17:07;33.03;;;15.23;;
16973;SDS011;8603;46.944;7.412;2022-12-15T04:19:33;21.63;;;12.80;;
16973;SDS011;8603;46.944;7.412;2022-12-15T04:22:18;59.30;;;15.13;;
16973;SDS011;8603;46.944;7.412;2022-12-15T04:24:44;34.30;;;12.33;;
16973;SDS011;8603;46.944;7.412;2022-12-15T04:27:28;78.77;;;13.90;;
16973;SDS011;8603;46.944;7.412;2022-12-15T04:30:12;32.27;;;12.27;;
16973;SDS011;8603;46.944;7.412;2022-12-15T04:32:56;38.10;;;13.63;;
16973;SDS011;8603;46.944;7.412;2022-12-15T04:35:41;26.13;;;13.27;;
16973;SDS011;8603;46.944;7.412;2022-12-15T04:38:25;20.07;;;12.70;;
16973;SDS011;8603;46.944;7.412;2022-12-15T04:41:09;23.33;;;12.10;;
16973;SDS011;8603;46.944;7.412;2022-12-15T04:43:54;16.97;;;11.83;;
16973;SDS011;8603;46.944;7.412;2022-12-15T04:46:38;17.63;;;11.07;;
16973;SDS011;8603;46.944;7.412;2022-12-15T04:49:22;18.93;;;12.17;;
16973;SDS011;8603;46.944;7.412;2022-12-15T04:52:06;47.93;;;12.37;;
16973;SDS011;8603;46.944;7.412;2022-12-15T04:54:50;26.73;;;12.87;;
16973;SDS011;8603;46.944;7.412;2022-12-15T04:57:35;54.63;;;14.37;;
16973;SDS011;8603;46.944;7.412;2022-12-15T05:00:19;17.70;;;11.53;;
16973;SDS011;8603;46.944;7.412;2022-12-15T05:03:04;17.53;;;10.87;;
16973;SDS011;8603;46.944;7.412;2022-12-15T05:05:49;22.23;;;12.20;;
16973;SDS011;8603;46.944;7.412;2022-12-15T05:08:33;17.87;;;11.30;;
16973;SDS011;8603;46.944;7.412;2022-12-15T05:11:17;18.93;;;11.60;;
16973;SDS011;8603;46.944;7.412;2022-12-15T05:14:01;24.03;;;10.97;;
16973;SDS011;8603;46.944;7.412;2022-12-15T05:16:45;15.93;;;9.57;;
16973;SDS011;8603;46.944;7.412;2022-12-15T05:19:29;17.50;;;10.50;;
16973;SDS011;8603;46.944;7.412;2022-12-15T05:22:13;17.87;;;9.33;;
16973;SDS011;8603;46.944;7.412;2022-12-15T05:24:57;21.87;;;9.93;;
16973;SDS011;8603;46.944;7.412;2022-12-15T05:27:41;22.57;;;9.93;;
16973;SDS011;8603;46.944;7.412;2022-12-15T05:30:25;17.63;;;10.50;;
16973;SDS011;8603;46.944;7.412;2022-12-15T05:33:09;28.73;;;10.37;;
16973;SDS011;8603;46.944;7.412;2022-12-15T05:35:35;21.17;;;9.47;;
16973;SDS011;8603;46.944;7.412;2022-12-15T05:38:01;25.83;;;10.33;;
16973;SDS011;8603;46.944;7.412;2022-12-15T05:40:28;12.97;;;8.90;;
16973;SDS011;8603;46.944;7.412;2022-12-15T05:42:56;13.77;;;9.10;;
16973;SDS011;8603;46.944;7.412;2022-12-15T05:45:23;21.40;;;9.73;;
16973;SDS011;8603;46.944;7.412;2022-12-15T05:47:52;30.47;;;11.77;;
16973;SDS011;8603;46.944;7.412;2022-12-15T05:50:19;41.57;;;11.37;;
16973;SDS011;8603;46.944;7.412;2022-12-15T05:52:47;48.13;;;12.40;;
16973;SDS011;8603;46.944;7.412;2022-12-15T05:55:21;26.80;;;9.63;;
16973;SDS011;8603;46.944;7.412;2022-12-15T05:57:51;14.07;;;9.30;;
16973;SDS011;8603;46.944;7.412;2022-12-15T06:00:17;16.97;;;9.67;;
16973;SDS011;8603;46.944;7.412;2022-12-15T06:02:43;13.43;;;9.47;;
16973;SDS011;8603;46.944;7.412;2022-12-15T06:05:09;37.93;;;10.60;;
16973;SDS011;8603;46.944;7.412;2022-12-15T06:07:34;14.93;;;8.70;;
16973;SDS011;8603;46.944;7.412;2022-12-15T06:10:01;13.53;;;8.37;;
16973;SDS011;8603;46.944;7.412;2022-12-15T06:40:02;12.73;;;8.97;;
16973;SDS011;8603;46.944;7.412;2022-12-15T12:04:24;16.40;;;8.57;;
16973;SDS011;8603;46.944;7.412;2022-12-15T12:10:04;12.57;;;8.73;;
16973;SDS011;8603;46.944;7.412;2022-12-15T12:12:39;12.33;;;8.50;;
16973;SDS011;8603;46.944;7.412;2022-12-15T12:21:08;12.90;;;8.80;;
16973;SDS011;8603;46.944;7.412;2022-12-15T12:23:24;12.47;;;7.90;;
16973;SDS011;8603;46.944;7.412;2022-12-15T12:25:57;12.23;;;7.80;;
16973;SDS011;8603;46.944;7.412;2022-12-15T12:28:33;13.10;;;8.00;;
16973;SDS011;8603;46.944;7.412;2022-12-15T12:31:37;11.30;;;7.47;;
16973;SDS011;8603;46.944;7.412;2022-12-15T12:37:26;10.70;;;7.53;;
16973;SDS011;8603;46.944;7.412;2022-12-15T12:39:52;11.17;;;8.47;;
16973;SDS011;8603;46.944;7.412;2022-12-15T12:42:41;11.83;;;7.93;;
16973;SDS011;8603;46.944;7.412;2022-12-15T12:45:15;13.50;;;8.23;;
16973;SDS011;8603;46.944;7.412;2022-12-15T12:47:44;11.70;;;7.43;;
16973;SDS011;8603;46.944;7.412;2022-12-15T12:52:46;12.43;;;8.20;;
16973;SDS011;8603;46.944;7.412;2022-12-15T12:57:53;14.67;;;8.93;;
16973;SDS011;8603;46.944;7.412;2022-12-15T13:00:29;15.67;;;9.20;;
16973;SDS011;8603;46.944;7.412;2022-12-15T13:03:12;17.77;;;8.67;;
16973;SDS011;8603;46.944;7.412;2022-12-15T13:05:42;11.90;;;8.20;;
16973;SDS011;8603;46.944;7.412;2022-12-15T13:10:34;13.70;;;7.90;;
16973;SDS011;8603;46.944;7.412;2022-12-15T13:29:54;17.23;;;9.17;;
16973;SDS011;8603;46.944;7.412;2022-12-15T13:32:40;15.60;;;8.60;;
16973;SDS011;8603;46.944;7.412;2022-12-15T13:45:38;14.57;;;7.93;;
16973;SDS011;8603;46.944;7.412;2022-12-15T13:48:33;13.00;;;7.70;;
16973;SDS011;8603;46.944;7.412;2022-12-15T13:51:03;11.10;;;7.60;;
16973;SDS011;8603;46.944;7.412;2022-12-15T13:53:47;13.03;;;8.07;;
16973;SDS011;8603;46.944;7.412;2022-12-15T14:01:57;12.33;;;7.57;;
16973;SDS011;8603;46.944;7.412;2022-12-15T14:04:23;13.37;;;7.40;;
16973;SDS011;8603;46.944;7.412;2022-12-15T14:06:55;8.87;;;6.47;;
16973;SDS011;8603;46.944;7.412;2022-12-15T14:09:26;10.33;;;7.17;;
16973;SDS011;8603;46.944;7.412;2022-12-15T14:12:03;10.73;;;7.07;;
16973;SDS011;8603;46.944;7.412;2022-12-15T14:14:36;11.27;;;7.40;;
16973;SDS011;8603;46.944;7.412;2022-12-15T14:17:07;12.67;;;7.57;;
16973;SDS011;8603;46.944;7.412;2022-12-15T14:19:39;9.93;;;6.73;;
16973;SDS011;8603;46.944;7.412;2022-12-15T14:22:16;11.77;;;7.17;;
16973;SDS011;8603;46.944;7.412;2022-12-15T14:24:50;9.77;;;6.67;;
16973;SDS011;8603;46.944;7.412;2022-12-15T14:27:21;11.07;;;6.70;;
16973;SDS011;8603;46.944;7.412;2022-12-15T14:29:48;10.07;;;6.83;;
16973;SDS011;8603;46.944;7.412;2022-12-15T14:32:14;10.00;;;6.57;;
16973;SDS011;8603;46.944;7.412;2022-12-15T14:34:39;11.70;;;7.37;;
16973;SDS011;8603;46.944;7.412;2022-12-15T14:37:09;14.17;;;7.70;;
16973;SDS011;8603;46.944;7.412;2022-12-15T14:39:41;15.10;;;8.03;;
16973;SDS011;8603;46.944;7.412;2022-12-15T14:42:15;11.33;;;7.53;;
16973;SDS011;8603;46.944;7.412;2022-12-15T14:44:47;13.50;;;8.37;;
16973;SDS011;8603;46.944;7.412;2022-12-15T14:47:18;11.30;;;7.87;;
16973;SDS011;8603;46.944;7.412;2022-12-15T14:49:52;11.10;;;7.53;;
16973;SDS011;8603;46.944;7.412;2022-12-15T14:55:02;13.53;;;8.27;;
16973;SDS011;8603;46.944;7.412;2022-12-15T14:57:50;12.93;;;7.90;;
16973;SDS011;8603;46.944;7.412;2022-12-15T15:00:27;11.50;;;8.03;;
16973;SDS011;8603;46.944;7.412;2022-12-15T15:03:14;16.87;;;8.97;;
16973;SDS011;8603;46.944;7.412;2022-12-15T15:06:28;15.27;;;8.60;;
16973;SDS011;8603;46.944;7.412;2022-12-15T15:08:42;14.20;;;8.17;;
16973;SDS011;8603;46.944;7.412;2022-12-15T15:14:16;13.67;;;8.83;;
16973;SDS011;8603;46.944;7.412;2022-12-15T15:17:34;12.80;;;8.43;;
16973;SDS011;8603;46.944;7.412;2022-12-15T15:19:37;14.43;;;9.13;;
16973;SDS011;8603;46.944;7.412;2022-12-15T15:27:46;14.30;;;8.60;;
16973;SDS011;8603;46.944;7.412;2022-12-15T15:30:18;10.07;;;7.63;;
16973;SDS011;8603;46.944;7.412;2022-12-15T15:32:57;13.27;;;8.27;;
16973;SDS011;8603;46.944;7.412;2022-12-15T15:35:32;13.53;;;8.37;;
16973;SDS011;8603;46.944;7.412;2022-12-15T15:41:00;12.10;;;8.13;;
16973;SDS011;8603;46.944;7.412;2022-12-15T15:43:38;15.17;;;8.10;;
16973;SDS011;8603;46.944;7.412;2022-12-15T15:46:05;11.63;;;7.03;;
16973;SDS011;8603;46.944;7.412;2022-12-15T15:48:44;10.47;;;7.30;;
16973;SDS011;8603;46.944;7.412;2022-12-15T15:51:11;13.07;;;7.60;;
16973;SDS011;8603;46.944;7.412;2022-12-15T15:53:38;11.63;;;7.87;;
16973;SDS011;8603;46.944;7.412;2022-12-15T15:56:04;11.90;;;8.17;;
16973;SDS011;8603;46.944;7.412;2022-12-15T15:58:33;10.43;;;7.40;;
16973;SDS011;8603;46.944;7.412;2022-12-15T16:00:59;11.10;;;8.03;;
16973;SDS011;8603;46.944;7.412;2022-12-15T16:03:25;12.80;;;8.20;;
16973;SDS011;8603;46.944;7.412;2022-12-15T16:05:50;12.97;;;7.53;;
16973;SDS011;8603;46.944;7.412;2022-12-15T16:08:18;12.47;;;7.57;;
16973;SDS011;8603;46.944;7.412;2022-12-15T16:10:47;11.67;;;7.70;;
16973;SDS011;8603;46.944;7.412;2022-12-15T16:13:14;13.20;;;7.90;;
16973;SDS011;8603;46.944;7.412;2022-12-15T16:15:41;11.90;;;8.37;;
16973;SDS011;8603;46.944;7.412;2022-12-15T16:18:06;10.87;;;7.80;;
16973;SDS011;8603;46.944;7.412;2022-12-15T16:20:32;12.87;;;8.07;;
16973;SDS011;8603;46.944;7.412;2022-12-15T16:23:00;13.87;;;8.40;;
16973;SDS011;8603;46.944;7.412;2022-12-15T16:25:33;12.40;;;8.20;;
16973;SDS011;8603;46.944;7.412;2022-12-15T16:28:14;12.73;;;8.20;;
16973;SDS011;8603;46.944;7.412;2022-12-15T16:30:43;15.13;;;8.97;;
16973;SDS011;8603;46.944;7.412;2022-12-15T16:33:09;11.30;;;8.20;;
16973;SDS011;8603;46.944;7.412;2022-12-15T16:35:35;12.23;;;7.77;;
16973;SDS011;8603;46.944;7.412;2022-12-15T16:38:05;9.40;;;6.87;;
16973;SDS011;8603;46.944;7.412;2022-12-15T16:40:37;10.73;;;7.70;;
16973;SDS011;8603;46.944;7.412;2022-12-15T16:43:08;11.23;;;7.80;;
16973;SDS011;8603;46.944;7.412;2022-12-15T16:45:39;11.63;;;8.00;;
16973;SDS011;8603;46.944;7.412;2022-12-15T16:48:09;10.03;;;6.97;;
16973;SDS011;8603;46.944;7.412;2022-12-15T16:50:35;11.33;;;7.27;;
16973;SDS011;8603;46.944;7.412;2022-12-15T16:53:02;11.10;;;7.53;;
16973;SDS011;8603;46.944;7.412;2022-12-15T16:55:29;10.50;;;7.17;;
16973;SDS011;8603;46.944;7.412;2022-12-15T16:57:56;11.27;;;7.53;;
16973;SDS011;8603;46.944;7.412;2022-12-15T17:00:26;10.17;;;6.40;;
16973;SDS011;8603;46.944;7.412;2022-12-15T17:02:54;8.60;;;6.30;;
16973;SDS011;8603;46.944;7.412;2022-12-15T17:05:20;8.93;;;5.90;;
16973;SDS011;8603;46.944;7.412;2022-12-15T17:07:50;10.17;;;6.83;;
16973;SDS011;8603;46.944;7.412;2022-12-15T17:10:20;8.33;;;5.80;;
16973;SDS011;8603;46.944;7.412;2022-12-15T17:12:49;9.77;;;5.50;;
16973;SDS011;8603;46.944;7.412;2022-12-15T17:15:17;10.03;;;5.93;;
16973;SDS011;8603;46.944;7.412;2022-12-15T17:17:44;6.97;;;5.67;;
16973;SDS011;8603;46.944;7.412;2022-12-15T17:20:20;10.23;;;6.60;;
16973;SDS011;8603;46.944;7.412;2022-12-15T17:22:49;7.23;;;5.70;;
16973;SDS011;8603;46.944;7.412;2022-12-15T17:25:36;8.80;;;6.17;;
16973;SDS011;8603;46.944;7.412;2022-12-15T17:28:05;9.37;;;6.33;;
16973;SDS011;8603;46.944;7.412;2022-12-15T17:30:35;7.67;;;5.67;;
16973;SDS011;8603;46.944;7.412;2022-12-15T17:33:01;11.17;;;6.40;;
16973;SDS011;8603;46.944;7.412;2022-12-15T17:35:27;10.77;;;6.20;;
16973;SDS011;8603;46.944;7.412;2022-12-15T17:37:53;11.20;;;6.43;;
16973;SDS011;8603;46.944;7.412;2022-12-15T17:40:20;11.23;;;7.40;;
16973;SDS011;8603;46.944;7.412;2022-12-15T17:42:48;8.83;;;6.40;;
16973;SDS011;8603;46.944;7.412;2022-12-15T17:45:18;10.10;;;7.33;;
16973;SDS011;8603;46.944;7.412;2022-12-15T17:47:47;11.03;;;6.20;;
16973;SDS011;8603;46.944;7.412;2022-12-15T17:50:14;8.80;;;6.50;;
16973;SDS011;8603;46.944;7.412;2022-12-15T17:52:41;9.17;;;6.67;;
16973;SDS011;8603;46.944;7.412;2022-12-15T18:03:57;8.23;;;6.30;;
16973;SDS011;8603;46.944;7.412;2022-12-15T18:10:30;9.13;;;5.83;;
16973;SDS011;8603;46.944;7.412;2022-12-15T18:13:32;8.87;;;5.80;;
16973;SDS011;8603;46.944;7.412;2022-12-15T18:16:00;9.67;;;6.03;;
16973;SDS011;8603;46.944;7.412;2022-12-15T18:25:40;7.33;;;5.47;;
16973;SDS011;8603;46.944;7.412;2022-12-15T18:28:01;10.07;;;5.40;;
16973;SDS011;8603;46.944;7.412;2022-12-15T18:34:16;8.83;;;6.00;;
16973;SDS011;8603;46.944;7.412;2022-12-15T18:36:54;9.03;;;5.30;;
16973;SDS011;8603;46.944;7.412;2022-12-15T18:40:11;10.37;;;6.30;;
16973;SDS011;8603;46.944;7.412;2022-12-15T18:42:38;9.20;;;5.63;;
16973;SDS011;8603;46.944;7.412;2022-12-15T18:45:04;9.87;;;6.47;;
16973;SDS011;8603;46.944;7.412;2022-12-15T18:48:28;9.37;;;5.63;;
16973;SDS011;8603;46.944;7.412;2022-12-15T18:51:24;7.57;;;5.17;;
16973;SDS011;8603;46.944;7.412;2022-12-15T18:54:01;8.43;;;5.67;;
16973;SDS011;8603;46.944;7.412;2022-12-15T19:24:50;8.83;;;5.60;;
16973;SDS011;8603;46.944;7.412;2022-12-15T19:33:54;7.33;;;5.57;;
16973;SDS011;8603;46.944;7.412;2022-12-15T19:36:47;7.17;;;5.03;;
16973;SDS011;8603;46.944;7.412;2022-12-15T19:39:29;7.17;;;5.17;;
16973;SDS011;8603;46.944;7.412;2022-12-15T19:42:07;7.00;;;4.90;;
16973;SDS011;8603;46.944;7.412;2022-12-15T19:44:45;7.73;;;4.57;;
16973;SDS011;8603;46.944;7.412;2022-12-15T19:47:13;5.93;;;3.90;;
16973;SDS011;8603;46.944;7.412;2022-12-15T19:49:40;6.93;;;4.53;;
16973;SDS011;8603;46.944;7.412;2022-12-15T19:52:18;5.67;;;4.23;;
16973;SDS011;8603;46.944;7.412;2022-12-15T19:55:33;5.37;;;4.10;;
16973;SDS011;8603;46.944;7.412;2022-12-15T20:08:44;6.33;;;3.23;;
16973;SDS011;8603;46.944;7.412;2022-12-15T20:11:34;3.87;;;3.10;;
16973;SDS011;8603;46.944;7.412;2022-12-15T20:17:04;4.80;;;3.70;;
16973;SDS011;8603;46.944;7.412;2022-12-15T20:19:38;4.10;;;3.17;;
16973;SDS011;8603;46.944;7.412;2022-12-15T20:22:28;4.00;;;3.37;;
16973;SDS011;8603;46.944;7.412;2022-12-15T20:25:08;5.20;;;3.90;;
16973;SDS011;8603;46.944;7.412;2022-12-15T20:28:20;5.03;;;3.73;;
16973;SDS011;8603;46.944;7.412;2022-12-15T20:30:47;4.97;;;3.67;;
16973;SDS011;8603;46.944;7.412;2022-12-15T20:33:40;5.90;;;4.03;;
16973;SDS011;8603;46.944;7.412;2022-12-15T20:36:31;5.33;;;3.80;;
16973;SDS011;8603;46.944;7.412;2022-12-15T20:39:46;4.57;;;3.37;;
16973;SDS011;8603;46.944;7.412;2022-12-15T20:42:16;6.03;;;4.63;;
16973;SDS011;8603;46.944;7.412;2022-12-15T20:44:47;5.17;;;4.07;;
16973;SDS011;8603;46.944;7.412;2022-12-15T20:47:30;5.47;;;4.10;;
16973;SDS011;8603;46.944;7.412;2022-12-15T20:55:58;5.30;;;4.10;;
16973;SDS011;8603;46.944;7.412;2022-12-15T21:01:21;4.50;;;3.77;;
16973;SDS011;8603;46.944;7.412;2022-12-15T21:07:18;4.90;;;3.37;;
16973;SDS011;8603;46.944;7.412;2022-12-15T21:09:56;5.67;;;4.33;;
16973;SDS011;8603;46.944;7.412;2022-12-15T21:12:22;5.20;;;4.00;;
16973;SDS011;8603;46.944;7.412;2022-12-15T21:14:51;4.60;;;4.07;;
16973;SDS011;8603;46.944;7.412;2022-12-15T21:17:19;4.80;;;3.43;;
16973;SDS011;8603;46.944;7.412;2022-12-15T21:19:46;4.70;;;3.80;;
16973;SDS011;8603;46.944;7.412;2022-12-15T21:24:48;5.90;;;4.70;;
16973;SDS011;8603;46.944;7.412;2022-12-15T21:27:43;4.07;;;3.60;;
16973;SDS011;8603;46.944;7.412;2022-12-15T23:40:44;4.83;;;3.47;;
16973;SDS011;8603;46.944;7.412;2022-12-15T23:53:54;3.60;;;3.07;;
16973;SDS011;8603;46.944;7.412;2022-12-15T23:56:21;4.60;;;3.40;;
16973;SDS011;8603;46.944;7.412;2022-12-15T23:58:53;5.20;;;3.10;;
